sensor_id;sensor_type;location;lat;lon;timestamp;P1;durP1;ratioP1;P2;durP2;ratioP2
15194;SDS011;7698;42.478;23.756;2022-08-19T00:00:47;5.75;;;5.35;;
15194;SDS011;7698;42.478;23.756;2022-08-19T00:03:15;6.25;;;5.80;;
15194;SDS011;7698;42.478;23.756;2022-08-19T00:05:42;7.10;;;6.40;;
15194;SDS011;7698;42.478;23.756;2022-08-19T00:08:09;6.60;;;6.10;;
15194;SDS011;7698;42.478;23.756;2022-08-19T00:10:36;5.90;;;5.53;;
15194;SDS011;7698;42.478;23.756;2022-08-19T00:13:02;6.38;;;5.78;;
15194;SDS011;7698;42.478;23.756;2022-08-19T00:15:30;5.97;;;5.47;;
15194;SDS011;7698;42.478;23.756;2022-08-19T00:17:58;6.57;;;6.03;;
15194;SDS011;7698;42.478;23.756;2022-08-19T00:20:25;6.18;;;5.63;;
15194;SDS011;7698;42.478;23.756;2022-08-19T00:22:52;7.00;;;5.50;;
15194;SDS011;7698;42.478;23.756;2022-08-19T00:25:20;6.13;;;5.63;;
15194;SDS011;7698;42.478;23.756;2022-08-19T00:27:47;6.95;;;6.40;;
15194;SDS011;7698;42.478;23.756;2022-08-19T00:30:14;7.10;;;6.50;;
15194;SDS011;7698;42.478;23.756;2022-08-19T00:32:41;7.88;;;7.28;;
15194;SDS011;7698;42.478;23.756;2022-08-19T00:35:10;7.93;;;7.32;;
15194;SDS011;7698;42.478;23.756;2022-08-19T00:37:37;7.93;;;7.38;;
15194;SDS011;7698;42.478;23.756;2022-08-19T00:40:08;8.43;;;7.05;;
15194;SDS011;7698;42.478;23.756;2022-08-19T00:42:36;7.85;;;7.28;;
15194;SDS011;7698;42.478;23.756;2022-08-19T00:45:03;7.03;;;6.57;;
15194;SDS011;7698;42.478;23.756;2022-08-19T00:47:37;7.57;;;6.97;;
15194;SDS011;7698;42.478;23.756;2022-08-19T00:50:04;6.55;;;6.05;;
15194;SDS011;7698;42.478;23.756;2022-08-19T00:52:33;6.75;;;6.22;;
15194;SDS011;7698;42.478;23.756;2022-08-19T00:55:05;6.10;;;5.60;;
15194;SDS011;7698;42.478;23.756;2022-08-19T00:57:35;6.80;;;6.22;;
15194;SDS011;7698;42.478;23.756;2022-08-19T01:00:05;5.97;;;5.57;;
15194;SDS011;7698;42.478;23.756;2022-08-19T01:02:34;5.88;;;5.47;;
15194;SDS011;7698;42.478;23.756;2022-08-19T01:05:03;5.93;;;5.47;;
15194;SDS011;7698;42.478;23.756;2022-08-19T01:07:35;6.15;;;5.65;;
15194;SDS011;7698;42.478;23.756;2022-08-19T01:10:06;6.35;;;5.75;;
15194;SDS011;7698;42.478;23.756;2022-08-19T01:12:35;5.57;;;5.18;;
15194;SDS011;7698;42.478;23.756;2022-08-19T01:15:02;5.93;;;5.45;;
15194;SDS011;7698;42.478;23.756;2022-08-19T01:17:30;6.70;;;5.90;;
15194;SDS011;7698;42.478;23.756;2022-08-19T01:19:57;6.80;;;6.30;;
15194;SDS011;7698;42.478;23.756;2022-08-19T01:22:28;7.18;;;6.68;;
15194;SDS011;7698;42.478;23.756;2022-08-19T01:24:56;7.97;;;7.38;;
15194;SDS011;7698;42.478;23.756;2022-08-19T01:27:23;8.80;;;8.20;;
15194;SDS011;7698;42.478;23.756;2022-08-19T01:29:50;8.32;;;7.57;;
15194;SDS011;7698;42.478;23.756;2022-08-19T01:32:17;8.45;;;7.85;;
15194;SDS011;7698;42.478;23.756;2022-08-19T01:34:44;8.10;;;7.50;;
15194;SDS011;7698;42.478;23.756;2022-08-19T01:37:12;8.95;;;8.35;;
15194;SDS011;7698;42.478;23.756;2022-08-19T01:39:42;9.00;;;8.30;;
15194;SDS011;7698;42.478;23.756;2022-08-19T01:42:09;8.98;;;8.27;;
15194;SDS011;7698;42.478;23.756;2022-08-19T01:44:37;8.40;;;7.80;;
15194;SDS011;7698;42.478;23.756;2022-08-19T01:47:06;9.30;;;8.55;;
15194;SDS011;7698;42.478;23.756;2022-08-19T01:49:34;9.05;;;8.40;;
15194;SDS011;7698;42.478;23.756;2022-08-19T01:52:03;8.57;;;8.07;;
15194;SDS011;7698;42.478;23.756;2022-08-19T01:54:30;8.77;;;7.93;;
15194;SDS011;7698;42.478;23.756;2022-08-19T01:56:59;9.20;;;8.43;;
15194;SDS011;7698;42.478;23.756;2022-08-19T01:59:29;8.15;;;7.53;;
15194;SDS011;7698;42.478;23.756;2022-08-19T02:01:58;7.72;;;7.22;;
15194;SDS011;7698;42.478;23.756;2022-08-19T02:04:25;8.55;;;7.95;;
15194;SDS011;7698;42.478;23.756;2022-08-19T02:06:52;7.90;;;7.20;;
15194;SDS011;7698;42.478;23.756;2022-08-19T02:09:19;7.55;;;6.85;;
15194;SDS011;7698;42.478;23.756;2022-08-19T02:11:45;7.72;;;7.13;;
15194;SDS011;7698;42.478;23.756;2022-08-19T02:14:14;8.73;;;7.93;;
15194;SDS011;7698;42.478;23.756;2022-08-19T02:16:40;9.05;;;8.25;;
15194;SDS011;7698;42.478;23.756;2022-08-19T02:19:07;8.55;;;7.95;;
15194;SDS011;7698;42.478;23.756;2022-08-19T02:21:35;8.65;;;7.93;;
15194;SDS011;7698;42.478;23.756;2022-08-19T02:24:02;11.07;;;8.35;;
15194;SDS011;7698;42.478;23.756;2022-08-19T02:26:29;8.60;;;7.82;;
15194;SDS011;7698;42.478;23.756;2022-08-19T02:28:58;8.60;;;8.00;;
15194;SDS011;7698;42.478;23.756;2022-08-19T02:31:26;9.02;;;8.20;;
15194;SDS011;7698;42.478;23.756;2022-08-19T02:33:54;9.18;;;8.40;;
15194;SDS011;7698;42.478;23.756;2022-08-19T02:36:21;9.40;;;8.60;;
15194;SDS011;7698;42.478;23.756;2022-08-19T02:38:48;8.50;;;7.90;;
15194;SDS011;7698;42.478;23.756;2022-08-19T02:41:15;9.10;;;8.38;;
15194;SDS011;7698;42.478;23.756;2022-08-19T02:43:44;8.80;;;8.20;;
15194;SDS011;7698;42.478;23.756;2022-08-19T02:46:13;8.32;;;7.72;;
15194;SDS011;7698;42.478;23.756;2022-08-19T02:48:44;8.23;;;7.53;;
15194;SDS011;7698;42.478;23.756;2022-08-19T02:51:15;7.53;;;7.00;;
15194;SDS011;7698;42.478;23.756;2022-08-19T02:53:43;9.52;;;8.57;;
15194;SDS011;7698;42.478;23.756;2022-08-19T02:56:10;7.57;;;6.88;;
15194;SDS011;7698;42.478;23.756;2022-08-19T02:58:37;8.30;;;7.60;;
15194;SDS011;7698;42.478;23.756;2022-08-19T03:01:04;8.52;;;7.65;;
15194;SDS011;7698;42.478;23.756;2022-08-19T03:03:31;7.55;;;6.95;;
15194;SDS011;7698;42.478;23.756;2022-08-19T03:06:10;8.50;;;7.80;;
15194;SDS011;7698;42.478;23.756;2022-08-19T03:08:39;10.65;;;9.68;;
15194;SDS011;7698;42.478;23.756;2022-08-19T03:11:11;9.98;;;9.27;;
15194;SDS011;7698;42.478;23.756;2022-08-19T03:13:39;10.35;;;9.38;;
15194;SDS011;7698;42.478;23.756;2022-08-19T03:16:06;10.65;;;9.85;;
15194;SDS011;7698;42.478;23.756;2022-08-19T03:18:33;10.77;;;9.68;;
15194;SDS011;7698;42.478;23.756;2022-08-19T03:21:00;9.90;;;9.05;;
15194;SDS011;7698;42.478;23.756;2022-08-19T03:23:28;11.10;;;10.30;;
15194;SDS011;7698;42.478;23.756;2022-08-19T03:25:55;10.50;;;9.70;;
15194;SDS011;7698;42.478;23.756;2022-08-19T03:28:22;11.00;;;10.00;;
15194;SDS011;7698;42.478;23.756;2022-08-19T03:30:55;10.98;;;10.13;;
15194;SDS011;7698;42.478;23.756;2022-08-19T03:33:23;12.32;;;11.10;;
15194;SDS011;7698;42.478;23.756;2022-08-19T03:36:00;10.90;;;10.10;;
15194;SDS011;7698;42.478;23.756;2022-08-19T03:38:30;11.48;;;10.68;;
15194;SDS011;7698;42.478;23.756;2022-08-19T03:40:57;11.82;;;10.40;;
15194;SDS011;7698;42.478;23.756;2022-08-19T03:43:24;10.95;;;10.23;;
15194;SDS011;7698;42.478;23.756;2022-08-19T03:45:59;10.55;;;9.63;;
15194;SDS011;7698;42.478;23.756;2022-08-19T03:48:27;10.50;;;9.70;;
15194;SDS011;7698;42.478;23.756;2022-08-19T03:50:55;11.23;;;10.43;;
15194;SDS011;7698;42.478;23.756;2022-08-19T03:53:24;13.55;;;12.35;;
15194;SDS011;7698;42.478;23.756;2022-08-19T03:55:53;13.57;;;12.48;;
15194;SDS011;7698;42.478;23.756;2022-08-19T03:58:20;13.70;;;12.70;;
15194;SDS011;7698;42.478;23.756;2022-08-19T04:00:47;14.30;;;13.10;;
15194;SDS011;7698;42.478;23.756;2022-08-19T04:03:15;14.23;;;13.23;;
15194;SDS011;7698;42.478;23.756;2022-08-19T04:05:43;12.93;;;12.00;;
15194;SDS011;7698;42.478;23.756;2022-08-19T04:08:11;13.85;;;12.75;;
15194;SDS011;7698;42.478;23.756;2022-08-19T04:10:38;14.55;;;13.50;;
15194;SDS011;7698;42.478;23.756;2022-08-19T04:13:06;14.00;;;13.00;;
15194;SDS011;7698;42.478;23.756;2022-08-19T04:15:38;15.10;;;13.90;;
15194;SDS011;7698;42.478;23.756;2022-08-19T04:18:06;13.65;;;12.48;;
15194;SDS011;7698;42.478;23.756;2022-08-19T04:20:38;13.57;;;12.57;;
15194;SDS011;7698;42.478;23.756;2022-08-19T04:23:06;12.07;;;11.07;;
15194;SDS011;7698;42.478;23.756;2022-08-19T04:25:35;12.30;;;11.10;;
15194;SDS011;7698;42.478;23.756;2022-08-19T04:28:03;11.45;;;10.55;;
15194;SDS011;7698;42.478;23.756;2022-08-19T04:30:36;12.90;;;12.00;;
15194;SDS011;7698;42.478;23.756;2022-08-19T04:33:04;11.35;;;10.55;;
15194;SDS011;7698;42.478;23.756;2022-08-19T04:35:34;12.30;;;11.40;;
15194;SDS011;7698;42.478;23.756;2022-08-19T04:38:02;11.57;;;10.57;;
15194;SDS011;7698;42.478;23.756;2022-08-19T04:40:29;10.50;;;9.68;;
15194;SDS011;7698;42.478;23.756;2022-08-19T04:43:13;9.65;;;8.95;;
15194;SDS011;7698;42.478;23.756;2022-08-19T04:45:42;8.98;;;8.38;;
15194;SDS011;7698;42.478;23.756;2022-08-19T04:48:09;9.43;;;8.27;;
15194;SDS011;7698;42.478;23.756;2022-08-19T04:50:39;8.40;;;7.80;;
15194;SDS011;7698;42.478;23.756;2022-08-19T04:53:08;8.48;;;7.88;;
15194;SDS011;7698;42.478;23.756;2022-08-19T04:55:38;8.02;;;7.43;;
15194;SDS011;7698;42.478;23.756;2022-08-19T04:58:05;9.30;;;8.48;;
15194;SDS011;7698;42.478;23.756;2022-08-19T05:00:32;10.63;;;9.75;;
15194;SDS011;7698;42.478;23.756;2022-08-19T05:03:00;9.07;;;8.43;;
15194;SDS011;7698;42.478;23.756;2022-08-19T05:05:28;8.60;;;7.90;;
15194;SDS011;7698;42.478;23.756;2022-08-19T05:07:56;9.00;;;8.30;;
15194;SDS011;7698;42.478;23.756;2022-08-19T05:10:23;7.75;;;7.25;;
15194;SDS011;7698;42.478;23.756;2022-08-19T05:12:50;7.43;;;6.93;;
15194;SDS011;7698;42.478;23.756;2022-08-19T05:15:17;7.80;;;7.28;;
15194;SDS011;7698;42.478;23.756;2022-08-19T05:17:45;7.78;;;7.07;;
15194;SDS011;7698;42.478;23.756;2022-08-19T05:20:27;7.97;;;7.28;;
15194;SDS011;7698;42.478;23.756;2022-08-19T05:23:11;7.35;;;6.75;;
15194;SDS011;7698;42.478;23.756;2022-08-19T05:25:42;8.32;;;7.72;;
15194;SDS011;7698;42.478;23.756;2022-08-19T05:28:09;7.53;;;6.93;;
15194;SDS011;7698;42.478;23.756;2022-08-19T05:30:36;7.82;;;7.22;;
15194;SDS011;7698;42.478;23.756;2022-08-19T05:33:03;8.85;;;8.02;;
15194;SDS011;7698;42.478;23.756;2022-08-19T05:35:31;8.02;;;7.43;;
15194;SDS011;7698;42.478;23.756;2022-08-19T05:37:58;7.65;;;7.07;;
15194;SDS011;7698;42.478;23.756;2022-08-19T05:40:25;7.78;;;7.07;;
15194;SDS011;7698;42.478;23.756;2022-08-19T05:42:52;7.90;;;7.30;;
15194;SDS011;7698;42.478;23.756;2022-08-19T05:45:19;8.52;;;7.93;;
15194;SDS011;7698;42.478;23.756;2022-08-19T05:47:47;7.38;;;6.68;;
15194;SDS011;7698;42.478;23.756;2022-08-19T05:50:14;6.90;;;6.35;;
15194;SDS011;7698;42.478;23.756;2022-08-19T05:52:43;8.02;;;7.13;;
15194;SDS011;7698;42.478;23.756;2022-08-19T05:55:11;7.47;;;6.97;;
15194;SDS011;7698;42.478;23.756;2022-08-19T05:57:38;7.95;;;7.43;;
15194;SDS011;7698;42.478;23.756;2022-08-19T06:00:06;8.20;;;7.50;;
15194;SDS011;7698;42.478;23.756;2022-08-19T06:02:35;8.45;;;7.50;;
15194;SDS011;7698;42.478;23.756;2022-08-19T06:05:03;8.90;;;8.15;;
15194;SDS011;7698;42.478;23.756;2022-08-19T06:07:34;7.75;;;7.25;;
15194;SDS011;7698;42.478;23.756;2022-08-19T06:10:02;8.80;;;8.00;;
15194;SDS011;7698;42.478;23.756;2022-08-19T06:12:30;7.57;;;6.97;;
15194;SDS011;7698;42.478;23.756;2022-08-19T06:14:59;7.75;;;7.15;;
15194;SDS011;7698;42.478;23.756;2022-08-19T06:17:27;8.32;;;7.65;;
15194;SDS011;7698;42.478;23.756;2022-08-19T06:19:55;7.95;;;7.35;;
15194;SDS011;7698;42.478;23.756;2022-08-19T06:22:22;7.72;;;7.13;;
15194;SDS011;7698;42.478;23.756;2022-08-19T06:24:49;9.23;;;8.43;;
15194;SDS011;7698;42.478;23.756;2022-08-19T06:27:19;8.13;;;7.43;;
15194;SDS011;7698;42.478;23.756;2022-08-19T06:29:46;7.60;;;7.03;;
15194;SDS011;7698;42.478;23.756;2022-08-19T06:32:14;7.25;;;6.65;;
15194;SDS011;7698;42.478;23.756;2022-08-19T06:34:43;6.65;;;6.05;;
15194;SDS011;7698;42.478;23.756;2022-08-19T06:37:10;7.53;;;6.75;;
15194;SDS011;7698;42.478;23.756;2022-08-19T06:39:38;7.68;;;6.68;;
15194;SDS011;7698;42.478;23.756;2022-08-19T06:42:06;7.25;;;6.55;;
15194;SDS011;7698;42.478;23.756;2022-08-19T06:44:38;6.65;;;6.20;;
15194;SDS011;7698;42.478;23.756;2022-08-19T06:47:08;7.90;;;6.72;;
15194;SDS011;7698;42.478;23.756;2022-08-19T06:49:36;7.30;;;6.80;;
15194;SDS011;7698;42.478;23.756;2022-08-19T06:52:03;7.97;;;7.25;;
15194;SDS011;7698;42.478;23.756;2022-08-19T06:54:31;7.90;;;7.05;;
15194;SDS011;7698;42.478;23.756;2022-08-19T06:56:58;7.50;;;6.90;;
15194;SDS011;7698;42.478;23.756;2022-08-19T06:59:27;7.82;;;7.22;;
15194;SDS011;7698;42.478;23.756;2022-08-19T07:01:59;7.18;;;6.57;;
15194;SDS011;7698;42.478;23.756;2022-08-19T07:04:30;7.45;;;6.80;;
15194;SDS011;7698;42.478;23.756;2022-08-19T07:06:59;7.30;;;6.70;;
15194;SDS011;7698;42.478;23.756;2022-08-19T07:09:28;7.43;;;6.72;;
15194;SDS011;7698;42.478;23.756;2022-08-19T07:11:56;7.00;;;6.30;;
15194;SDS011;7698;42.478;23.756;2022-08-19T07:14:24;7.25;;;6.63;;
15194;SDS011;7698;42.478;23.756;2022-08-19T07:16:52;7.15;;;6.10;;
15194;SDS011;7698;42.478;23.756;2022-08-19T07:19:23;7.18;;;6.57;;
15194;SDS011;7698;42.478;23.756;2022-08-19T07:21:52;7.60;;;6.50;;
15194;SDS011;7698;42.478;23.756;2022-08-19T07:24:20;7.40;;;6.68;;
15194;SDS011;7698;42.478;23.756;2022-08-19T07:26:50;6.13;;;5.57;;
15194;SDS011;7698;42.478;23.756;2022-08-19T07:29:19;6.60;;;6.00;;
15194;SDS011;7698;42.478;23.756;2022-08-19T07:31:48;6.68;;;6.07;;
15194;SDS011;7698;42.478;23.756;2022-08-19T07:34:15;7.05;;;6.35;;
15194;SDS011;7698;42.478;23.756;2022-08-19T07:36:45;9.45;;;6.60;;
15194;SDS011;7698;42.478;23.756;2022-08-19T07:39:13;7.90;;;7.10;;
15194;SDS011;7698;42.478;23.756;2022-08-19T07:41:42;6.90;;;6.30;;
15194;SDS011;7698;42.478;23.756;2022-08-19T07:44:10;6.80;;;6.10;;
15194;SDS011;7698;42.478;23.756;2022-08-19T07:46:39;6.97;;;6.13;;
15194;SDS011;7698;42.478;23.756;2022-08-19T07:49:09;6.65;;;6.05;;
15194;SDS011;7698;42.478;23.756;2022-08-19T07:51:46;9.77;;;5.95;;
15194;SDS011;7698;42.478;23.756;2022-08-19T07:54:14;5.95;;;5.40;;
15194;SDS011;7698;42.478;23.756;2022-08-19T07:56:41;6.40;;;5.90;;
15194;SDS011;7698;42.478;23.756;2022-08-19T07:59:09;5.55;;;5.05;;
15194;SDS011;7698;42.478;23.756;2022-08-19T08:01:37;4.57;;;4.28;;
15194;SDS011;7698;42.478;23.756;2022-08-19T08:04:05;7.82;;;7.20;;
15194;SDS011;7698;42.478;23.756;2022-08-19T08:06:51;4.47;;;4.10;;
15194;SDS011;7698;42.478;23.756;2022-08-19T08:09:37;4.35;;;3.95;;
15194;SDS011;7698;42.478;23.756;2022-08-19T08:12:10;4.00;;;3.50;;
15194;SDS011;7698;42.478;23.756;2022-08-19T08:14:41;4.78;;;4.38;;
15194;SDS011;7698;42.478;23.756;2022-08-19T08:17:11;5.47;;;4.00;;
15194;SDS011;7698;42.478;23.756;2022-08-19T08:19:38;5.60;;;3.50;;
15194;SDS011;7698;42.478;23.756;2022-08-19T08:22:08;3.92;;;3.55;;
15194;SDS011;7698;42.478;23.756;2022-08-19T08:24:56;5.68;;;4.13;;
15194;SDS011;7698;42.478;23.756;2022-08-19T08:27:28;3.97;;;3.67;;
15194;SDS011;7698;42.478;23.756;2022-08-19T08:29:56;3.83;;;3.47;;
15194;SDS011;7698;42.478;23.756;2022-08-19T08:32:23;5.40;;;4.40;;
15194;SDS011;7698;42.478;23.756;2022-08-19T08:34:50;7.50;;;4.85;;
15194;SDS011;7698;42.478;23.756;2022-08-19T08:37:18;4.15;;;3.25;;
15194;SDS011;7698;42.478;23.756;2022-08-19T08:39:45;3.28;;;3.08;;
15194;SDS011;7698;42.478;23.756;2022-08-19T08:42:14;3.88;;;3.47;;
15194;SDS011;7698;42.478;23.756;2022-08-19T08:44:51;4.13;;;2.85;;
15194;SDS011;7698;42.478;23.756;2022-08-19T08:47:24;3.00;;;2.80;;
15194;SDS011;7698;42.478;23.756;2022-08-19T08:49:55;3.08;;;2.88;;
15194;SDS011;7698;42.478;23.756;2022-08-19T08:52:27;3.47;;;2.85;;
15194;SDS011;7698;42.478;23.756;2022-08-19T08:55:03;3.80;;;2.95;;
15194;SDS011;7698;42.478;23.756;2022-08-19T08:57:35;5.90;;;3.08;;
15194;SDS011;7698;42.478;23.756;2022-08-19T09:00:07;3.53;;;3.22;;
15194;SDS011;7698;42.478;23.756;2022-08-19T09:02:37;2.95;;;2.75;;
15194;SDS011;7698;42.478;23.756;2022-08-19T09:05:04;3.72;;;3.22;;
15194;SDS011;7698;42.478;23.756;2022-08-19T09:07:39;3.00;;;2.80;;
15194;SDS011;7698;42.478;23.756;2022-08-19T09:10:16;3.17;;;2.97;;
15194;SDS011;7698;42.478;23.756;2022-08-19T09:12:51;4.45;;;3.42;;
15194;SDS011;7698;42.478;23.756;2022-08-19T09:15:25;3.78;;;3.40;;
15194;SDS011;7698;42.478;23.756;2022-08-19T09:17:59;3.83;;;3.03;;
15194;SDS011;7698;42.478;23.756;2022-08-19T09:20:28;3.88;;;3.25;;
15194;SDS011;7698;42.478;23.756;2022-08-19T09:22:57;3.28;;;2.97;;
15194;SDS011;7698;42.478;23.756;2022-08-19T09:25:25;6.40;;;3.47;;
15194;SDS011;7698;42.478;23.756;2022-08-19T09:27:52;5.88;;;4.30;;
15194;SDS011;7698;42.478;23.756;2022-08-19T09:30:23;3.80;;;3.50;;
15194;SDS011;7698;42.478;23.756;2022-08-19T09:32:52;3.97;;;3.58;;
15194;SDS011;7698;42.478;23.756;2022-08-19T09:35:20;4.75;;;3.45;;
15194;SDS011;7698;42.478;23.756;2022-08-19T09:37:48;3.47;;;3.22;;
15194;SDS011;7698;42.478;23.756;2022-08-19T09:40:17;6.15;;;3.92;;
15194;SDS011;7698;42.478;23.756;2022-08-19T09:42:45;3.63;;;3.33;;
15194;SDS011;7698;42.478;23.756;2022-08-19T09:45:12;4.03;;;3.50;;
15194;SDS011;7698;42.478;23.756;2022-08-19T09:47:39;3.88;;;3.53;;
15194;SDS011;7698;42.478;23.756;2022-08-19T09:50:07;3.58;;;3.28;;
15194;SDS011;7698;42.478;23.756;2022-08-19T09:52:36;3.97;;;3.60;;
15194;SDS011;7698;42.478;23.756;2022-08-19T09:55:04;4.18;;;3.88;;
15194;SDS011;7698;42.478;23.756;2022-08-19T09:57:33;3.65;;;3.35;;
15194;SDS011;7698;42.478;23.756;2022-08-19T10:00:00;3.88;;;3.58;;
15194;SDS011;7698;42.478;23.756;2022-08-19T10:02:28;4.22;;;3.33;;
15194;SDS011;7698;42.478;23.756;2022-08-19T10:04:55;3.20;;;2.90;;
15194;SDS011;7698;42.478;23.756;2022-08-19T10:07:39;4.32;;;3.60;;
15194;SDS011;7698;42.478;23.756;2022-08-19T10:10:06;4.18;;;3.78;;
15194;SDS011;7698;42.478;23.756;2022-08-19T10:12:36;3.45;;;3.25;;
15194;SDS011;7698;42.478;23.756;2022-08-19T10:15:04;3.47;;;3.22;;
15194;SDS011;7698;42.478;23.756;2022-08-19T10:17:33;3.63;;;2.97;;
15194;SDS011;7698;42.478;23.756;2022-08-19T10:20:00;9.38;;;3.35;;
15194;SDS011;7698;42.478;23.756;2022-08-19T10:22:29;4.70;;;2.88;;
15194;SDS011;7698;42.478;23.756;2022-08-19T10:24:56;3.17;;;2.97;;
15194;SDS011;7698;42.478;23.756;2022-08-19T10:27:24;5.03;;;3.45;;
15194;SDS011;7698;42.478;23.756;2022-08-19T10:29:53;3.55;;;3.22;;
15194;SDS011;7698;42.478;23.756;2022-08-19T10:32:21;3.80;;;3.13;;
15194;SDS011;7698;42.478;23.756;2022-08-19T10:34:50;3.38;;;3.17;;
15194;SDS011;7698;42.478;23.756;2022-08-19T10:37:18;4.40;;;3.50;;
15194;SDS011;7698;42.478;23.756;2022-08-19T10:39:45;3.22;;;3.03;;
15194;SDS011;7698;42.478;23.756;2022-08-19T10:42:13;4.45;;;3.65;;
15194;SDS011;7698;42.478;23.756;2022-08-19T10:44:42;4.43;;;3.33;;
15194;SDS011;7698;42.478;23.756;2022-08-19T10:47:11;5.55;;;3.13;;
15194;SDS011;7698;42.478;23.756;2022-08-19T10:49:38;5.53;;;3.28;;
15194;SDS011;7698;42.478;23.756;2022-08-19T10:52:25;7.95;;;3.78;;
15194;SDS011;7698;42.478;23.756;2022-08-19T10:55:00;3.90;;;3.55;;
15194;SDS011;7698;42.478;23.756;2022-08-19T10:57:44;3.72;;;3.42;;
15194;SDS011;7698;42.478;23.756;2022-08-19T11:00:12;3.25;;;2.95;;
15194;SDS011;7698;42.478;23.756;2022-08-19T11:02:41;3.90;;;3.60;;
15194;SDS011;7698;42.478;23.756;2022-08-19T11:05:08;3.72;;;3.25;;
15194;SDS011;7698;42.478;23.756;2022-08-19T11:07:37;3.83;;;3.47;;
15194;SDS011;7698;42.478;23.756;2022-08-19T11:10:04;5.70;;;3.67;;
15194;SDS011;7698;42.478;23.756;2022-08-19T11:12:44;3.35;;;3.15;;
15194;SDS011;7698;42.478;23.756;2022-08-19T11:15:25;3.90;;;3.50;;
15194;SDS011;7698;42.478;23.756;2022-08-19T11:17:55;4.53;;;3.67;;
15194;SDS011;7698;42.478;23.756;2022-08-19T11:20:22;4.03;;;3.63;;
15194;SDS011;7698;42.478;23.756;2022-08-19T11:22:51;4.13;;;3.40;;
15194;SDS011;7698;42.478;23.756;2022-08-19T11:25:19;4.13;;;3.40;;
15194;SDS011;7698;42.478;23.756;2022-08-19T11:27:47;6.10;;;3.53;;
15194;SDS011;7698;42.478;23.756;2022-08-19T11:30:16;4.93;;;3.58;;
15194;SDS011;7698;42.478;23.756;2022-08-19T11:32:43;4.43;;;3.80;;
15194;SDS011;7698;42.478;23.756;2022-08-19T11:35:11;3.75;;;3.55;;
15194;SDS011;7698;42.478;23.756;2022-08-19T11:37:38;3.90;;;3.60;;
15194;SDS011;7698;42.478;23.756;2022-08-19T11:40:06;5.75;;;3.72;;
15194;SDS011;7698;42.478;23.756;2022-08-19T11:42:34;4.18;;;3.78;;
15194;SDS011;7698;42.478;23.756;2022-08-19T11:45:18;4.20;;;3.30;;
15194;SDS011;7698;42.478;23.756;2022-08-19T11:47:45;2.97;;;2.70;;
15194;SDS011;7698;42.478;23.756;2022-08-19T11:50:14;4.22;;;3.42;;
15194;SDS011;7698;42.478;23.756;2022-08-19T11:52:42;3.85;;;3.55;;
15194;SDS011;7698;42.478;23.756;2022-08-19T11:55:10;4.55;;;3.50;;
15194;SDS011;7698;42.478;23.756;2022-08-19T11:57:38;3.38;;;3.08;;
15194;SDS011;7698;42.478;23.756;2022-08-19T12:00:06;3.20;;;3.00;;
15194;SDS011;7698;42.478;23.756;2022-08-19T12:02:35;3.72;;;3.22;;
15194;SDS011;7698;42.478;23.756;2022-08-19T12:05:02;3.50;;;3.30;;
15194;SDS011;7698;42.478;23.756;2022-08-19T12:07:32;4.32;;;3.70;;
15194;SDS011;7698;42.478;23.756;2022-08-19T12:09:59;4.15;;;3.45;;
15194;SDS011;7698;42.478;23.756;2022-08-19T12:12:26;3.92;;;3.53;;
15194;SDS011;7698;42.478;23.756;2022-08-19T12:14:54;5.63;;;4.35;;
15194;SDS011;7698;42.478;23.756;2022-08-19T12:17:23;3.35;;;3.15;;
15194;SDS011;7698;42.478;23.756;2022-08-19T12:19:51;3.50;;;3.20;;
15194;SDS011;7698;42.478;23.756;2022-08-19T12:22:18;7.40;;;3.50;;
15194;SDS011;7698;42.478;23.756;2022-08-19T12:24:48;6.20;;;3.70;;
15194;SDS011;7698;42.478;23.756;2022-08-19T12:27:17;4.13;;;3.45;;
15194;SDS011;7698;42.478;23.756;2022-08-19T12:29:45;4.82;;;3.70;;
15194;SDS011;7698;42.478;23.756;2022-08-19T12:32:12;3.55;;;3.35;;
15194;SDS011;7698;42.478;23.756;2022-08-19T12:34:39;4.00;;;3.25;;
15194;SDS011;7698;42.478;23.756;2022-08-19T12:37:06;4.13;;;3.83;;
15194;SDS011;7698;42.478;23.756;2022-08-19T12:39:34;3.53;;;3.25;;
15194;SDS011;7698;42.478;23.756;2022-08-19T12:42:04;4.10;;;3.35;;
15194;SDS011;7698;42.478;23.756;2022-08-19T12:44:32;3.33;;;3.03;;
15194;SDS011;7698;42.478;23.756;2022-08-19T12:46:59;4.38;;;3.65;;
15194;SDS011;7698;42.478;23.756;2022-08-19T12:49:27;3.58;;;3.28;;
15194;SDS011;7698;42.478;23.756;2022-08-19T12:51:54;4.43;;;3.58;;
15194;SDS011;7698;42.478;23.756;2022-08-19T12:54:23;3.30;;;3.08;;
15194;SDS011;7698;42.478;23.756;2022-08-19T12:56:50;6.03;;;3.40;;
15194;SDS011;7698;42.478;23.756;2022-08-19T12:59:18;4.85;;;3.58;;
15194;SDS011;7698;42.478;23.756;2022-08-19T13:01:46;4.50;;;3.80;;
15194;SDS011;7698;42.478;23.756;2022-08-19T13:04:13;5.03;;;3.30;;
15194;SDS011;7698;42.478;23.756;2022-08-19T13:06:40;4.95;;;3.38;;
15194;SDS011;7698;42.478;23.756;2022-08-19T13:09:07;4.25;;;3.58;;
15194;SDS011;7698;42.478;23.756;2022-08-19T13:11:34;4.80;;;3.55;;
15194;SDS011;7698;42.478;23.756;2022-08-19T13:14:03;4.47;;;4.07;;
15194;SDS011;7698;42.478;23.756;2022-08-19T13:16:31;4.90;;;3.70;;
15194;SDS011;7698;42.478;23.756;2022-08-19T13:18:59;5.43;;;3.33;;
15194;SDS011;7698;42.478;23.756;2022-08-19T13:21:28;4.88;;;3.40;;
15194;SDS011;7698;42.478;23.756;2022-08-19T13:23:55;4.70;;;3.50;;
15194;SDS011;7698;42.478;23.756;2022-08-19T13:26:23;3.90;;;3.60;;
15194;SDS011;7698;42.478;23.756;2022-08-19T13:28:50;4.75;;;3.47;;
15194;SDS011;7698;42.478;23.756;2022-08-19T13:31:38;3.70;;;3.40;;
15194;SDS011;7698;42.478;23.756;2022-08-19T13:34:27;4.53;;;3.92;;
15194;SDS011;7698;42.478;23.756;2022-08-19T13:36:55;4.45;;;3.65;;
15194;SDS011;7698;42.478;23.756;2022-08-19T13:39:23;5.47;;;3.35;;
15194;SDS011;7698;42.478;23.756;2022-08-19T13:41:50;3.17;;;2.92;;
15194;SDS011;7698;42.478;23.756;2022-08-19T13:44:17;5.05;;;3.13;;
15194;SDS011;7698;42.478;23.756;2022-08-19T13:46:46;3.70;;;3.47;;
15194;SDS011;7698;42.478;23.756;2022-08-19T13:49:18;4.38;;;3.75;;
15194;SDS011;7698;42.478;23.756;2022-08-19T13:51:45;4.45;;;3.63;;
15194;SDS011;7698;42.478;23.756;2022-08-19T13:54:13;3.67;;;3.47;;
15194;SDS011;7698;42.478;23.756;2022-08-19T13:56:40;3.97;;;3.67;;
15194;SDS011;7698;42.478;23.756;2022-08-19T13:59:09;4.20;;;3.80;;
15194;SDS011;7698;42.478;23.756;2022-08-19T14:01:37;3.92;;;3.63;;
15194;SDS011;7698;42.478;23.756;2022-08-19T14:04:07;4.38;;;3.97;;
15194;SDS011;7698;42.478;23.756;2022-08-19T14:06:35;3.83;;;3.45;;
15194;SDS011;7698;42.478;23.756;2022-08-19T14:09:02;7.82;;;3.88;;
15194;SDS011;7698;42.478;23.756;2022-08-19T14:11:30;4.07;;;3.58;;
15194;SDS011;7698;42.478;23.756;2022-08-19T14:13:58;4.50;;;3.47;;
15194;SDS011;7698;42.478;23.756;2022-08-19T14:16:25;4.97;;;3.58;;
15194;SDS011;7698;42.478;23.756;2022-08-19T14:18:52;4.07;;;3.67;;
15194;SDS011;7698;42.478;23.756;2022-08-19T14:21:21;3.92;;;3.60;;
15194;SDS011;7698;42.478;23.756;2022-08-19T14:23:50;4.38;;;3.30;;
15194;SDS011;7698;42.478;23.756;2022-08-19T14:26:19;3.35;;;3.15;;
15194;SDS011;7698;42.478;23.756;2022-08-19T14:28:48;6.28;;;3.80;;
15194;SDS011;7698;42.478;23.756;2022-08-19T14:31:15;5.47;;;4.20;;
15194;SDS011;7698;42.478;23.756;2022-08-19T14:33:45;5.70;;;4.00;;
15194;SDS011;7698;42.478;23.756;2022-08-19T14:36:13;4.25;;;3.85;;
15194;SDS011;7698;42.478;23.756;2022-08-19T14:38:42;5.82;;;3.90;;
15194;SDS011;7698;42.478;23.756;2022-08-19T14:41:11;5.40;;;3.92;;
15194;SDS011;7698;42.478;23.756;2022-08-19T14:43:41;4.03;;;3.72;;
15194;SDS011;7698;42.478;23.756;2022-08-19T14:46:11;4.07;;;3.78;;
15194;SDS011;7698;42.478;23.756;2022-08-19T14:48:40;5.15;;;3.58;;
15194;SDS011;7698;42.478;23.756;2022-08-19T14:51:08;4.28;;;3.92;;
15194;SDS011;7698;42.478;23.756;2022-08-19T14:53:36;4.35;;;4.05;;
15194;SDS011;7698;42.478;23.756;2022-08-19T14:56:08;3.83;;;3.53;;